sensor_id;sensor_type;location;lat;lon;timestamp;temperature;humidity
60313;DHT22;46158;52.850;6.970;2023-05-10T00:00:21;18.10;77.90
60313;DHT22;46158;52.850;6.970;2023-05-10T00:02:48;18.10;77.90
60313;DHT22;46158;52.850;6.970;2023-05-10T00:05:13;18.10;77.90
60313;DHT22;46158;52.850;6.970;2023-05-10T00:07:39;18.10;77.90
60313;DHT22;46158;52.850;6.970;2023-05-10T00:10:06;18.10;77.90
60313;DHT22;46158;52.850;6.970;2023-05-10T00:12:31;18.10;77.90
60313;DHT22;46158;52.850;6.970;2023-05-10T00:14:57;18.10;77.90
60313;DHT22;46158;52.850;6.970;2023-05-10T00:17:23;18.10;77.90
60313;DHT22;46158;52.850;6.970;2023-05-10T00:19:49;18.10;77.90
60313;DHT22;46158;52.850;6.970;2023-05-10T00:22:14;18.10;77.90
60313;DHT22;46158;52.850;6.970;2023-05-10T00:24:40;18.10;77.90
60313;DHT22;46158;52.850;6.970;2023-05-10T00:27:06;18.10;77.90
60313;DHT22;46158;52.850;6.970;2023-05-10T00:29:31;18.10;77.90
60313;DHT22;46158;52.850;6.970;2023-05-10T00:31:58;18.10;77.90
60313;DHT22;46158;52.850;6.970;2023-05-10T00:34:24;18.10;78.00
60313;DHT22;46158;52.850;6.970;2023-05-10T00:36:50;18.10;78.00
60313;DHT22;46158;52.850;6.970;2023-05-10T00:39:15;18.10;78.00
60313;DHT22;46158;52.850;6.970;2023-05-10T00:41:41;18.10;78.00
60313;DHT22;46158;52.850;6.970;2023-05-10T00:44:07;18.10;78.00
60313;DHT22;46158;52.850;6.970;2023-05-10T00:46:32;18.00;77.90
60313;DHT22;46158;52.850;6.970;2023-05-10T00:48:58;18.00;78.00
60313;DHT22;46158;52.850;6.970;2023-05-10T00:51:24;18.00;78.00
60313;DHT22;46158;52.850;6.970;2023-05-10T00:53:51;18.00;77.90
60313;DHT22;46158;52.850;6.970;2023-05-10T00:56:17;18.00;78.00
60313;DHT22;46158;52.850;6.970;2023-05-10T00:58:43;18.00;78.60
60313;DHT22;46158;52.850;6.970;2023-05-10T01:01:09;18.00;77.90
60313;DHT22;46158;52.850;6.970;2023-05-10T01:03:36;18.00;77.90
60313;DHT22;46158;52.850;6.970;2023-05-10T01:06:02;18.00;77.90
60313;DHT22;46158;52.850;6.970;2023-05-10T01:08:28;18.00;78.00
60313;DHT22;46158;52.850;6.970;2023-05-10T01:10:54;18.00;77.90
60313;DHT22;46158;52.850;6.970;2023-05-10T01:13:33;18.00;78.60
60313;DHT22;46158;52.850;6.970;2023-05-10T01:16:00;18.00;77.80
60313;DHT22;46158;52.850;6.970;2023-05-10T01:18:41;18.00;78.60
60313;DHT22;46158;52.850;6.970;2023-05-10T01:35:03;17.90;77.90
60313;DHT22;46158;52.850;6.970;2023-05-10T01:37:42;17.90;77.80
60313;DHT22;46158;52.850;6.970;2023-05-10T01:40:23;17.90;77.90
60313;DHT22;46158;52.850;6.970;2023-05-10T01:42:54;17.90;77.90
60313;DHT22;46158;52.850;6.970;2023-05-10T01:45:37;17.90;77.90
60313;DHT22;46158;52.850;6.970;2023-05-10T01:50:32;17.90;78.00
60313;DHT22;46158;52.850;6.970;2023-05-10T01:53:00;17.90;77.90
60313;DHT22;46158;52.850;6.970;2023-05-10T01:55:30;17.90;77.90
60313;DHT22;46158;52.850;6.970;2023-05-10T01:58:04;17.90;77.90
60313;DHT22;46158;52.850;6.970;2023-05-10T02:00:32;17.90;77.90
60313;DHT22;46158;52.850;6.970;2023-05-10T02:03:00;17.90;77.90
60313;DHT22;46158;52.850;6.970;2023-05-10T02:05:29;17.80;77.80
60313;DHT22;46158;52.850;6.970;2023-05-10T02:07:56;17.80;77.90
60313;DHT22;46158;52.850;6.970;2023-05-10T02:10:23;17.80;77.90
60313;DHT22;46158;52.850;6.970;2023-05-10T02:12:50;17.80;77.90
60313;DHT22;46158;52.850;6.970;2023-05-10T02:15:21;17.80;77.80
60313;DHT22;46158;52.850;6.970;2023-05-10T02:17:47;17.90;77.90
60313;DHT22;46158;52.850;6.970;2023-05-10T02:20:14;17.80;77.80
60313;DHT22;46158;52.850;6.970;2023-05-10T02:22:41;17.80;77.80
60313;DHT22;46158;52.850;6.970;2023-05-10T02:25:08;17.80;77.80
60313;DHT22;46158;52.850;6.970;2023-05-10T02:27:36;17.80;77.90
60313;DHT22;46158;52.850;6.970;2023-05-10T02:30:03;17.80;77.80
60313;DHT22;46158;52.850;6.970;2023-05-10T02:32:30;17.80;77.90
60313;DHT22;46158;52.850;6.970;2023-05-10T02:34:57;17.80;77.80
60313;DHT22;46158;52.850;6.970;2023-05-10T02:37:24;17.80;77.90
60313;DHT22;46158;52.850;6.970;2023-05-10T02:39:52;17.80;77.80
60313;DHT22;46158;52.850;6.970;2023-05-10T02:42:23;17.70;77.80
60313;DHT22;46158;52.850;6.970;2023-05-10T02:44:53;17.80;77.80
60313;DHT22;46158;52.850;6.970;2023-05-10T02:47:20;17.70;77.70
60313;DHT22;46158;52.850;6.970;2023-05-10T02:49:46;17.70;77.80
60313;DHT22;46158;52.850;6.970;2023-05-10T02:52:18;17.70;77.80
60313;DHT22;46158;52.850;6.970;2023-05-10T02:54:49;17.70;77.70
60313;DHT22;46158;52.850;6.970;2023-05-10T02:57:16;17.70;77.70
60313;DHT22;46158;52.850;6.970;2023-05-10T02:59:45;17.70;77.80
60313;DHT22;46158;52.850;6.970;2023-05-10T03:02:12;17.70;77.80
60313;DHT22;46158;52.850;6.970;2023-05-10T03:04:38;17.70;77.70
60313;DHT22;46158;52.850;6.970;2023-05-10T03:07:04;17.70;77.70
60313;DHT22;46158;52.850;6.970;2023-05-10T03:09:32;17.70;77.70
60313;DHT22;46158;52.850;6.970;2023-05-10T03:14:56;17.70;77.70
60313;DHT22;46158;52.850;6.970;2023-05-10T03:17:29;17.70;77.70
60313;DHT22;46158;52.850;6.970;2023-05-10T03:19:58;17.60;77.70
60313;DHT22;46158;52.850;6.970;2023-05-10T03:22:38;17.70;77.70
60313;DHT22;46158;52.850;6.970;2023-05-10T03:25:07;17.60;77.60
60313;DHT22;46158;52.850;6.970;2023-05-10T03:27:35;17.60;77.70
60313;DHT22;46158;52.850;6.970;2023-05-10T03:30:02;17.60;77.70
60313;DHT22;46158;52.850;6.970;2023-05-10T03:32:29;17.60;77.70
60313;DHT22;46158;52.850;6.970;2023-05-10T03:34:57;17.60;77.70
60313;DHT22;46158;52.850;6.970;2023-05-10T03:37:22;17.60;77.70
60313;DHT22;46158;52.850;6.970;2023-05-10T03:39:48;17.60;77.70
60313;DHT22;46158;52.850;6.970;2023-05-10T03:42:26;17.60;77.70
60313;DHT22;46158;52.850;6.970;2023-05-10T03:44:52;17.70;77.60
60313;DHT22;46158;52.850;6.970;2023-05-10T03:47:18;17.60;77.70
60313;DHT22;46158;52.850;6.970;2023-05-10T03:49:44;17.60;78.30
60313;DHT22;46158;52.850;6.970;2023-05-10T03:52:09;17.60;77.60
60313;DHT22;46158;52.850;6.970;2023-05-10T03:54:35;17.60;77.70
60313;DHT22;46158;52.850;6.970;2023-05-10T03:57:01;17.60;77.60
60313;DHT22;46158;52.850;6.970;2023-05-10T03:59:28;17.60;77.70
60313;DHT22;46158;52.850;6.970;2023-05-10T04:01:54;17.60;77.60
60313;DHT22;46158;52.850;6.970;2023-05-10T04:04:19;17.60;77.60
60313;DHT22;46158;52.850;6.970;2023-05-10T04:06:46;17.60;77.70
60313;DHT22;46158;52.850;6.970;2023-05-10T04:09:12;17.60;77.60
60313;DHT22;46158;52.850;6.970;2023-05-10T04:11:38;17.50;77.60
60313;DHT22;46158;52.850;6.970;2023-05-10T04:14:04;17.50;77.60
60313;DHT22;46158;52.850;6.970;2023-05-10T04:16:29;17.50;77.60
60313;DHT22;46158;52.850;6.970;2023-05-10T04:18:55;17.50;77.60
60313;DHT22;46158;52.850;6.970;2023-05-10T04:21:21;17.50;77.50
60313;DHT22;46158;52.850;6.970;2023-05-10T04:23:46;17.50;77.50
60313;DHT22;46158;52.850;6.970;2023-05-10T04:26:13;17.50;77.50
60313;DHT22;46158;52.850;6.970;2023-05-10T04:28:38;17.50;77.50
60313;DHT22;46158;52.850;6.970;2023-05-10T04:31:06;17.50;77.50
60313;DHT22;46158;52.850;6.970;2023-05-10T04:33:32;17.50;77.50
60313;DHT22;46158;52.850;6.970;2023-05-10T04:35:59;17.50;77.50
60313;DHT22;46158;52.850;6.970;2023-05-10T04:38:24;17.50;77.50
60313;DHT22;46158;52.850;6.970;2023-05-10T04:40:50;17.50;77.50
60313;DHT22;46158;52.850;6.970;2023-05-10T04:43:16;17.50;77.50
60313;DHT22;46158;52.850;6.970;2023-05-10T04:45:42;17.50;77.50
60313;DHT22;46158;52.850;6.970;2023-05-10T04:48:08;17.50;77.60
60313;DHT22;46158;52.850;6.970;2023-05-10T04:50:34;17.50;77.50
60313;DHT22;46158;52.850;6.970;2023-05-10T04:52:59;17.50;77.50
60313;DHT22;46158;52.850;6.970;2023-05-10T04:55:26;17.40;77.50
60313;DHT22;46158;52.850;6.970;2023-05-10T04:57:53;17.50;77.50
60313;DHT22;46158;52.850;6.970;2023-05-10T05:00:22;17.40;77.50
60313;DHT22;46158;52.850;6.970;2023-05-10T05:02:48;17.40;77.50
60313;DHT22;46158;52.850;6.970;2023-05-10T05:05:13;17.40;77.50
60313;DHT22;46158;52.850;6.970;2023-05-10T05:07:39;17.50;77.60
60313;DHT22;46158;52.850;6.970;2023-05-10T05:10:08;17.50;77.60
60313;DHT22;46158;52.850;6.970;2023-05-10T05:12:34;17.40;77.50
60313;DHT22;46158;52.850;6.970;2023-05-10T05:15:01;17.40;77.60
60313;DHT22;46158;52.850;6.970;2023-05-10T05:17:27;17.40;77.60
60313;DHT22;46158;52.850;6.970;2023-05-10T05:19:52;17.40;77.60
60313;DHT22;46158;52.850;6.970;2023-05-10T05:22:21;17.40;77.60
60313;DHT22;46158;52.850;6.970;2023-05-10T05:24:56;17.40;77.60
60313;DHT22;46158;52.850;6.970;2023-05-10T05:27:22;17.40;77.60
60313;DHT22;46158;52.850;6.970;2023-05-10T05:29:50;17.40;78.30
60313;DHT22;46158;52.850;6.970;2023-05-10T05:32:16;17.40;77.70
60313;DHT22;46158;52.850;6.970;2023-05-10T05:34:44;17.40;77.70
60313;DHT22;46158;52.850;6.970;2023-05-10T05:37:15;17.40;77.60
60313;DHT22;46158;52.850;6.970;2023-05-10T05:39:42;17.40;77.60
60313;DHT22;46158;52.850;6.970;2023-05-10T05:42:09;17.40;77.70
60313;DHT22;46158;52.850;6.970;2023-05-10T05:44:35;17.40;77.70
60313;DHT22;46158;52.850;6.970;2023-05-10T05:47:04;17.30;77.70
60313;DHT22;46158;52.850;6.970;2023-05-10T05:49:29;17.40;77.70
60313;DHT22;46158;52.850;6.970;2023-05-10T05:51:59;17.30;77.70
60313;DHT22;46158;52.850;6.970;2023-05-10T05:54:25;17.30;77.70
60313;DHT22;46158;52.850;6.970;2023-05-10T05:56:57;17.30;77.80
60313;DHT22;46158;52.850;6.970;2023-05-10T05:59:23;17.30;77.80
60313;DHT22;46158;52.850;6.970;2023-05-10T06:01:49;17.30;77.80
60313;DHT22;46158;52.850;6.970;2023-05-10T06:04:15;17.30;77.80
60313;DHT22;46158;52.850;6.970;2023-05-10T06:06:41;17.30;77.80
60313;DHT22;46158;52.850;6.970;2023-05-10T06:09:07;17.30;77.90
60313;DHT22;46158;52.850;6.970;2023-05-10T06:11:34;17.30;77.90
60313;DHT22;46158;52.850;6.970;2023-05-10T06:14:00;17.30;77.90
60313;DHT22;46158;52.850;6.970;2023-05-10T06:16:26;17.30;77.90
60313;DHT22;46158;52.850;6.970;2023-05-10T06:18:51;17.30;77.90
60313;DHT22;46158;52.850;6.970;2023-05-10T06:21:17;17.30;78.00
60313;DHT22;46158;52.850;6.970;2023-05-10T06:23:43;17.30;78.00
60313;DHT22;46158;52.850;6.970;2023-05-10T06:26:09;17.30;78.00
60313;DHT22;46158;52.850;6.970;2023-05-10T06:28:35;17.30;78.00
60313;DHT22;46158;52.850;6.970;2023-05-10T06:31:04;17.30;78.00
60313;DHT22;46158;52.850;6.970;2023-05-10T06:33:30;17.30;78.00
60313;DHT22;46158;52.850;6.970;2023-05-10T06:35:55;17.30;78.00
60313;DHT22;46158;52.850;6.970;2023-05-10T06:38:21;17.30;78.00
60313;DHT22;46158;52.850;6.970;2023-05-10T06:40:47;17.30;78.10
60313;DHT22;46158;52.850;6.970;2023-05-10T06:43:13;17.30;78.10
60313;DHT22;46158;52.850;6.970;2023-05-10T06:45:39;17.30;78.00
60313;DHT22;46158;52.850;6.970;2023-05-10T06:48:05;17.30;78.00
60313;DHT22;46158;52.850;6.970;2023-05-10T06:50:31;17.30;78.00
60313;DHT22;46158;52.850;6.970;2023-05-10T06:52:56;17.30;78.00
60313;DHT22;46158;52.850;6.970;2023-05-10T06:55:22;17.30;78.00
60313;DHT22;46158;52.850;6.970;2023-05-10T06:57:48;17.20;78.00
60313;DHT22;46158;52.850;6.970;2023-05-10T07:00:14;17.20;78.00
60313;DHT22;46158;52.850;6.970;2023-05-10T07:02:40;17.20;78.00
60313;DHT22;46158;52.850;6.970;2023-05-10T07:05:06;17.20;78.00
60313;DHT22;46158;52.850;6.970;2023-05-10T07:07:32;17.20;78.00
60313;DHT22;46158;52.850;6.970;2023-05-10T07:09:58;17.20;78.00
60313;DHT22;46158;52.850;6.970;2023-05-10T07:12:24;17.20;78.00
60313;DHT22;46158;52.850;6.970;2023-05-10T07:14:50;17.20;77.90
60313;DHT22;46158;52.850;6.970;2023-05-10T07:17:15;17.20;78.00
60313;DHT22;46158;52.850;6.970;2023-05-10T07:19:41;17.20;78.00
60313;DHT22;46158;52.850;6.970;2023-05-10T07:22:07;17.20;77.90
60313;DHT22;46158;52.850;6.970;2023-05-10T07:24:33;17.20;78.00
60313;DHT22;46158;52.850;6.970;2023-05-10T07:26:59;17.20;78.00
60313;DHT22;46158;52.850;6.970;2023-05-10T07:29:25;17.20;78.00
60313;DHT22;46158;52.850;6.970;2023-05-10T07:31:50;17.20;78.00
60313;DHT22;46158;52.850;6.970;2023-05-10T07:34:16;17.20;78.00
60313;DHT22;46158;52.850;6.970;2023-05-10T07:36:42;17.20;78.00
60313;DHT22;46158;52.850;6.970;2023-05-10T07:39:08;17.20;78.00
60313;DHT22;46158;52.850;6.970;2023-05-10T07:41:33;17.20;78.00
60313;DHT22;46158;52.850;6.970;2023-05-10T07:43:59;17.20;78.00
60313;DHT22;46158;52.850;6.970;2023-05-10T07:46:25;17.20;78.00
60313;DHT22;46158;52.850;6.970;2023-05-10T07:48:50;17.20;78.10
60313;DHT22;46158;52.850;6.970;2023-05-10T07:51:16;17.20;78.00
60313;DHT22;46158;52.850;6.970;2023-05-10T07:53:42;17.20;78.00
60313;DHT22;46158;52.850;6.970;2023-05-10T07:56:25;17.20;78.00
60313;DHT22;46158;52.850;6.970;2023-05-10T07:58:55;17.20;78.00
60313;DHT22;46158;52.850;6.970;2023-05-10T08:01:21;17.10;78.00
60313;DHT22;46158;52.850;6.970;2023-05-10T08:03:47;17.20;78.10
60313;DHT22;46158;52.850;6.970;2023-05-10T08:06:14;17.10;78.00
60313;DHT22;46158;52.850;6.970;2023-05-10T08:08:40;17.10;78.00
60313;DHT22;46158;52.850;6.970;2023-05-10T08:11:06;17.10;78.00
60313;DHT22;46158;52.850;6.970;2023-05-10T08:13:32;17.10;78.00
60313;DHT22;46158;52.850;6.970;2023-05-10T08:15:58;17.10;78.00
60313;DHT22;46158;52.850;6.970;2023-05-10T08:18:24;17.10;78.10
60313;DHT22;46158;52.850;6.970;2023-05-10T08:20:50;17.10;78.00
60313;DHT22;46158;52.850;6.970;2023-05-10T08:23:15;17.10;78.00
60313;DHT22;46158;52.850;6.970;2023-05-10T08:25:41;17.10;78.00
60313;DHT22;46158;52.850;6.970;2023-05-10T08:28:07;17.10;78.00
60313;DHT22;46158;52.850;6.970;2023-05-10T08:30:32;17.10;78.10
60313;DHT22;46158;52.850;6.970;2023-05-10T08:32:58;17.10;78.10
60313;DHT22;46158;52.850;6.970;2023-05-10T08:35:24;17.10;78.10
60313;DHT22;46158;52.850;6.970;2023-05-10T08:37:51;17.10;78.10
60313;DHT22;46158;52.850;6.970;2023-05-10T08:40:19;17.10;78.20
60313;DHT22;46158;52.850;6.970;2023-05-10T08:42:58;17.20;78.20
60313;DHT22;46158;52.850;6.970;2023-05-10T08:45:27;17.10;78.20
60313;DHT22;46158;52.850;6.970;2023-05-10T08:47:57;17.10;78.20
60313;DHT22;46158;52.850;6.970;2023-05-10T08:50:24;17.10;78.20
60313;DHT22;46158;52.850;6.970;2023-05-10T08:52:53;17.10;78.20
60313;DHT22;46158;52.850;6.970;2023-05-10T08:55:20;17.10;78.20
60313;DHT22;46158;52.850;6.970;2023-05-10T08:57:48;17.10;78.20
60313;DHT22;46158;52.850;6.970;2023-05-10T09:00:14;17.10;78.20
60313;DHT22;46158;52.850;6.970;2023-05-10T09:02:42;17.10;78.30
60313;DHT22;46158;52.850;6.970;2023-05-10T09:05:08;17.10;78.30
60313;DHT22;46158;52.850;6.970;2023-05-10T09:07:38;17.10;78.30
60313;DHT22;46158;52.850;6.970;2023-05-10T09:10:05;17.10;78.30
60313;DHT22;46158;52.850;6.970;2023-05-10T09:12:31;17.10;78.30
60313;DHT22;46158;52.850;6.970;2023-05-10T09:14:58;17.10;78.20
60313;DHT22;46158;52.850;6.970;2023-05-10T09:17:25;17.10;78.30
60313;DHT22;46158;52.850;6.970;2023-05-10T09:19:59;17.10;78.30
60313;DHT22;46158;52.850;6.970;2023-05-10T09:22:25;17.10;78.20
60313;DHT22;46158;52.850;6.970;2023-05-10T09:25:08;17.10;78.30
60313;DHT22;46158;52.850;6.970;2023-05-10T09:27:36;17.10;78.20
60313;DHT22;46158;52.850;6.970;2023-05-10T09:30:06;17.10;78.30
60313;DHT22;46158;52.850;6.970;2023-05-10T09:32:37;17.10;78.30
60313;DHT22;46158;52.850;6.970;2023-05-10T09:35:14;17.10;78.30
60313;DHT22;46158;52.850;6.970;2023-05-10T09:37:49;17.10;78.30
60313;DHT22;46158;52.850;6.970;2023-05-10T09:40:27;17.10;78.30
60313;DHT22;46158;52.850;6.970;2023-05-10T09:42:55;17.10;78.30
60313;DHT22;46158;52.850;6.970;2023-05-10T09:45:23;17.10;78.30
60313;DHT22;46158;52.850;6.970;2023-05-10T09:47:50;17.10;78.30
60313;DHT22;46158;52.850;6.970;2023-05-10T09:50:16;17.10;78.30
60313;DHT22;46158;52.850;6.970;2023-05-10T09:55:18;17.10;78.30
60313;DHT22;46158;52.850;6.970;2023-05-10T09:57:59;17.10;78.30
60313;DHT22;46158;52.850;6.970;2023-05-10T10:00:26;17.10;78.30
60313;DHT22;46158;52.850;6.970;2023-05-10T10:02:59;17.10;78.30
60313;DHT22;46158;52.850;6.970;2023-05-10T10:05:29;17.10;78.30
60313;DHT22;46158;52.850;6.970;2023-05-10T10:07:59;17.10;78.30
60313;DHT22;46158;52.850;6.970;2023-05-10T10:10:26;17.10;78.30
60313;DHT22;46158;52.850;6.970;2023-05-10T10:12:55;17.00;78.30
60313;DHT22;46158;52.850;6.970;2023-05-10T10:15:29;17.10;78.30
60313;DHT22;46158;52.850;6.970;2023-05-10T10:17:55;17.10;78.30
60313;DHT22;46158;52.850;6.970;2023-05-10T10:20:23;17.10;78.40
60313;DHT22;46158;52.850;6.970;2023-05-10T10:22:51;17.10;78.40
60313;DHT22;46158;52.850;6.970;2023-05-10T10:25:20;17.10;78.40
60313;DHT22;46158;52.850;6.970;2023-05-10T10:31:11;17.10;78.20
60313;DHT22;46158;52.850;6.970;2023-05-10T10:34:01;17.00;78.20
60313;DHT22;46158;52.850;6.970;2023-05-10T10:36:31;17.00;78.30
60313;DHT22;46158;52.850;6.970;2023-05-10T10:39:09;17.00;78.30
60313;DHT22;46158;52.850;6.970;2023-05-10T10:44:35;17.00;78.20
60313;DHT22;46158;52.850;6.970;2023-05-10T10:52:37;17.00;78.10
60313;DHT22;46158;52.850;6.970;2023-05-10T10:55:24;17.00;78.90
60313;DHT22;46158;52.850;6.970;2023-05-10T10:57:53;17.00;78.10
60313;DHT22;46158;52.850;6.970;2023-05-10T11:00:35;17.00;78.20
60313;DHT22;46158;52.850;6.970;2023-05-10T11:03:08;17.00;78.20
60313;DHT22;46158;52.850;6.970;2023-05-10T11:05:43;17.00;78.20
60313;DHT22;46158;52.850;6.970;2023-05-10T11:08:42;17.00;78.20
60313;DHT22;46158;52.850;6.970;2023-05-10T11:11:05;17.00;78.30
60313;DHT22;46158;52.850;6.970;2023-05-10T11:13:45;17.00;78.30
60313;DHT22;46158;52.850;6.970;2023-05-10T11:16:18;17.00;78.20
60313;DHT22;46158;52.850;6.970;2023-05-10T11:19:06;17.00;78.30
60313;DHT22;46158;52.850;6.970;2023-05-10T11:21:50;17.00;78.20
60313;DHT22;46158;52.850;6.970;2023-05-10T11:24:21;17.00;78.20
60313;DHT22;46158;52.850;6.970;2023-05-10T11:26:53;17.00;78.20
60313;DHT22;46158;52.850;6.970;2023-05-10T11:29:19;17.00;78.20
60313;DHT22;46158;52.850;6.970;2023-05-10T11:31:50;17.00;78.30
60313;DHT22;46158;52.850;6.970;2023-05-10T11:34:35;17.00;78.30
60313;DHT22;46158;52.850;6.970;2023-05-10T11:37:04;17.00;78.20
60313;DHT22;46158;52.850;6.970;2023-05-10T11:39:34;17.00;78.30
60313;DHT22;46158;52.850;6.970;2023-05-10T11:42:09;17.00;78.20
60313;DHT22;46158;52.850;6.970;2023-05-10T11:44:36;17.00;78.30
60313;DHT22;46158;52.850;6.970;2023-05-10T11:47:11;17.00;78.30
60313;DHT22;46158;52.850;6.970;2023-05-10T11:49:37;17.00;78.30
60313;DHT22;46158;52.850;6.970;2023-05-10T11:52:08;17.00;78.30
60313;DHT22;46158;52.850;6.970;2023-05-10T11:54:37;17.00;78.30
60313;DHT22;46158;52.850;6.970;2023-05-10T11:57:04;17.00;78.30
60313;DHT22;46158;52.850;6.970;2023-05-10T11:59:30;17.00;78.30
60313;DHT22;46158;52.850;6.970;2023-05-10T12:01:56;17.00;78.30
60313;DHT22;46158;52.850;6.970;2023-05-10T12:04:26;17.00;78.30
60313;DHT22;46158;52.850;6.970;2023-05-10T12:06:54;17.00;78.30
60313;DHT22;46158;52.850;6.970;2023-05-10T12:09:24;17.00;78.30
60313;DHT22;46158;52.850;6.970;2023-05-10T12:11:55;17.00;78.30
60313;DHT22;46158;52.850;6.970;2023-05-10T12:14:25;17.00;78.30
60313;DHT22;46158;52.850;6.970;2023-05-10T12:16:52;17.00;78.30
60313;DHT22;46158;52.850;6.970;2023-05-10T12:19:21;17.00;78.30
60313;DHT22;46158;52.850;6.970;2023-05-10T12:21:47;17.00;78.30
60313;DHT22;46158;52.850;6.970;2023-05-10T12:24:16;17.00;78.30
60313;DHT22;46158;52.850;6.970;2023-05-10T12:26:47;17.00;78.30
60313;DHT22;46158;52.850;6.970;2023-05-10T12:29:18;17.00;78.30
60313;DHT22;46158;52.850;6.970;2023-05-10T12:31:55;17.00;78.30
60313;DHT22;46158;52.850;6.970;2023-05-10T12:34:33;17.00;78.30
60313;DHT22;46158;52.850;6.970;2023-05-10T12:37:01;17.00;78.20
60313;DHT22;46158;52.850;6.970;2023-05-10T12:39:45;17.00;78.30
60313;DHT22;46158;52.850;6.970;2023-05-10T12:42:11;16.90;78.20
60313;DHT22;46158;52.850;6.970;2023-05-10T12:44:38;17.00;78.30
60313;DHT22;46158;52.850;6.970;2023-05-10T12:47:04;17.00;78.30
60313;DHT22;46158;52.850;6.970;2023-05-10T12:49:33;17.00;78.20
60313;DHT22;46158;52.850;6.970;2023-05-10T12:51:59;17.00;78.20
60313;DHT22;46158;52.850;6.970;2023-05-10T12:54:25;17.00;78.20
60313;DHT22;46158;52.850;6.970;2023-05-10T12:56:53;17.00;78.10
60313;DHT22;46158;52.850;6.970;2023-05-10T12:59:20;17.00;78.10
60313;DHT22;46158;52.850;6.970;2023-05-10T13:01:46;17.00;78.00
60313;DHT22;46158;52.850;6.970;2023-05-10T13:04:11;17.00;78.00
60313;DHT22;46158;52.850;6.970;2023-05-10T13:06:37;17.00;78.70
60313;DHT22;46158;52.850;6.970;2023-05-10T13:09:04;17.00;78.00
60313;DHT22;46158;52.850;6.970;2023-05-10T13:11:30;17.00;77.90
60313;DHT22;46158;52.850;6.970;2023-05-10T13:13:56;17.00;77.90
60313;DHT22;46158;52.850;6.970;2023-05-10T13:16:22;17.00;77.80
60313;DHT22;46158;52.850;6.970;2023-05-10T13:18:48;17.00;77.80
60313;DHT22;46158;52.850;6.970;2023-05-10T13:21:13;17.00;77.80
60313;DHT22;46158;52.850;6.970;2023-05-10T13:23:39;17.00;77.80
60313;DHT22;46158;52.850;6.970;2023-05-10T13:26:05;17.00;77.70
60313;DHT22;46158;52.850;6.970;2023-05-10T13:28:31;17.00;77.70
60313;DHT22;46158;52.850;6.970;2023-05-10T13:30:57;17.00;77.70
60313;DHT22;46158;52.850;6.970;2023-05-10T13:33:25;17.00;77.70
60313;DHT22;46158;52.850;6.970;2023-05-10T13:35:51;17.00;77.70
60313;DHT22;46158;52.850;6.970;2023-05-10T13:38:17;17.00;77.70
60313;DHT22;46158;52.850;6.970;2023-05-10T13:40:43;17.00;77.70
60313;DHT22;46158;52.850;6.970;2023-05-10T13:43:08;17.00;77.70
60313;DHT22;46158;52.850;6.970;2023-05-10T13:45:34;17.00;77.60
60313;DHT22;46158;52.850;6.970;2023-05-10T13:48:00;17.00;77.70
60313;DHT22;46158;52.850;6.970;2023-05-10T13:50:25;17.00;77.70
60313;DHT22;46158;52.850;6.970;2023-05-10T13:52:52;17.00;77.60
60313;DHT22;46158;52.850;6.970;2023-05-10T13:55:18;17.00;77.70
60313;DHT22;46158;52.850;6.970;2023-05-10T13:57:43;17.00;77.70
60313;DHT22;46158;52.850;6.970;2023-05-10T14:00:13;17.00;77.70
60313;DHT22;46158;52.850;6.970;2023-05-10T14:02:39;17.00;77.70
60313;DHT22;46158;52.850;6.970;2023-05-10T14:05:05;17.00;77.70
60313;DHT22;46158;52.850;6.970;2023-05-10T14:07:31;17.00;77.90
60313;DHT22;46158;52.850;6.970;2023-05-10T14:09:56;17.00;78.00
60313;DHT22;46158;52.850;6.970;2023-05-10T14:12:22;17.00;78.10
60313;DHT22;46158;52.850;6.970;2023-05-10T14:14:48;17.00;78.20
60313;DHT22;46158;52.850;6.970;2023-05-10T14:17:14;17.00;78.10
60313;DHT22;46158;52.850;6.970;2023-05-10T14:19:40;17.00;78.30
60313;DHT22;46158;52.850;6.970;2023-05-10T14:22:05;17.00;78.30
60313;DHT22;46158;52.850;6.970;2023-05-10T14:24:31;17.00;78.50
60313;DHT22;46158;52.850;6.970;2023-05-10T14:26:57;17.00;78.50
60313;DHT22;46158;52.850;6.970;2023-05-10T14:29:24;17.00;78.50
60313;DHT22;46158;52.850;6.970;2023-05-10T14:31:50;17.00;78.60
60313;DHT22;46158;52.850;6.970;2023-05-10T14:34:15;17.00;78.50
60313;DHT22;46158;52.850;6.970;2023-05-10T14:36:41;17.00;78.60
60313;DHT22;46158;52.850;6.970;2023-05-10T14:39:07;17.00;78.60
60313;DHT22;46158;52.850;6.970;2023-05-10T14:41:35;17.00;78.60
60313;DHT22;46158;52.850;6.970;2023-05-10T14:44:01;17.00;78.60
60313;DHT22;46158;52.850;6.970;2023-05-10T14:46:28;17.00;78.60
60313;DHT22;46158;52.850;6.970;2023-05-10T14:48:55;17.00;78.60
60313;DHT22;46158;52.850;6.970;2023-05-10T14:51:20;17.00;78.60
60313;DHT22;46158;52.850;6.970;2023-05-10T14:53:48;17.00;78.50
60313;DHT22;46158;52.850;6.970;2023-05-10T14:56:15;17.00;78.50
60313;DHT22;46158;52.850;6.970;2023-05-10T14:58:40;17.00;78.50
60313;DHT22;46158;52.850;6.970;2023-05-10T15:01:06;17.00;78.50
60313;DHT22;46158;52.850;6.970;2023-05-10T15:03:32;17.00;78.60
60313;DHT22;46158;52.850;6.970;2023-05-10T15:05:58;17.00;78.60
60313;DHT22;46158;52.850;6.970;2023-05-10T15:08:24;17.00;78.70
60313;DHT22;46158;52.850;6.970;2023-05-10T15:10:52;17.00;78.70
60313;DHT22;46158;52.850;6.970;2023-05-10T15:13:18;17.00;78.80
60313;DHT22;46158;52.850;6.970;2023-05-10T15:15:43;17.00;78.80
60313;DHT22;46158;52.850;6.970;2023-05-10T15:18:09;17.10;78.90
60313;DHT22;46158;52.850;6.970;2023-05-10T15:20:35;17.00;79.50
60313;DHT22;46158;52.850;6.970;2023-05-10T15:23:03;17.00;78.80
60313;DHT22;46158;52.850;6.970;2023-05-10T15:25:32;17.00;78.80
60313;DHT22;46158;52.850;6.970;2023-05-10T15:28:01;17.00;78.80
60313;DHT22;46158;52.850;6.970;2023-05-10T15:30:27;17.00;78.80
60313;DHT22;46158;52.850;6.970;2023-05-10T15:32:54;17.00;78.80
60313;DHT22;46158;52.850;6.970;2023-05-10T15:35:20;17.00;78.80
60313;DHT22;46158;52.850;6.970;2023-05-10T15:37:48;17.10;78.90
60313;DHT22;46158;52.850;6.970;2023-05-10T15:40:14;17.00;78.80
60313;DHT22;46158;52.850;6.970;2023-05-10T15:42:40;17.00;78.80
60313;DHT22;46158;52.850;6.970;2023-05-10T15:45:07;17.00;78.70
60313;DHT22;46158;52.850;6.970;2023-05-10T15:47:33;17.00;78.60
60313;DHT22;46158;52.850;6.970;2023-05-10T15:49:58;17.00;78.50
60313;DHT22;46158;52.850;6.970;2023-05-10T15:52:24;17.00;78.50
60313;DHT22;46158;52.850;6.970;2023-05-10T15:54:50;17.00;78.50
60313;DHT22;46158;52.850;6.970;2023-05-10T15:57:16;17.00;78.40
60313;DHT22;46158;52.850;6.970;2023-05-10T15:59:42;17.00;78.40
60313;DHT22;46158;52.850;6.970;2023-05-10T16:02:08;17.00;78.40
60313;DHT22;46158;52.850;6.970;2023-05-10T16:04:35;17.00;78.40
60313;DHT22;46158;52.850;6.970;2023-05-10T16:07:02;17.00;78.30